createdAt,value
2022-08-20T00:04:21.467Z,1.10
2022-08-20T00:09:23.187Z,1.42
2022-08-20T00:14:24.811Z,0.90
2022-08-20T00:19:27.118Z,0.90
2022-08-20T00:24:28.828Z,0.90
2022-08-20T00:29:30.513Z,1.40
2022-08-20T00:34:32.151Z,1.00
2022-08-20T00:39:33.807Z,0.95
2022-08-20T00:44:36.212Z,1.08
2022-08-20T00:49:38.048Z,0.90
2022-08-20T00:54:51.804Z,0.80
2022-08-20T00:59:53.828Z,1.48
2022-08-20T01:04:56.215Z,1.10
2022-08-20T01:09:59.557Z,1.08
2022-08-20T01:15:05.237Z,1.13
2022-08-20T01:20:20.486Z,0.80
2022-08-20T01:25:47.367Z,1.38
2022-08-20T01:35:51.954Z,1.23
2022-08-20T01:41:15.024Z,1.17
2022-08-20T01:46:18.078Z,1.42
2022-08-20T01:51:26.838Z,1.25
2022-08-20T01:56:30.797Z,1.27
2022-08-20T02:01:46.828Z,1.27
2022-08-20T02:06:56.531Z,1.33
2022-08-20T02:12:00.529Z,1.45
2022-08-20T02:17:02.266Z,1.10
2022-08-20T02:22:13.812Z,1.45
2022-08-20T02:27:15.781Z,1.45
2022-08-20T02:32:32.063Z,1.45
2022-08-20T02:37:37.680Z,1.10
2022-08-20T02:42:42.498Z,1.33
2022-08-20T02:47:45.879Z,1.63
2022-08-20T02:52:48.831Z,1.58
2022-08-20T02:57:58.662Z,1.95
2022-08-20T03:03:01.539Z,1.42
2022-08-20T03:08:03.768Z,2.15
2022-08-20T03:13:07.338Z,1.80
2022-08-20T03:18:09.280Z,2.60
2022-08-20T03:23:12.160Z,2.95
2022-08-20T03:28:15.190Z,2.20
2022-08-20T03:33:17.244Z,2.45
2022-08-20T03:38:21.552Z,1.77
2022-08-20T03:43:35.175Z,3.40
2022-08-20T03:48:38.423Z,4.65
2022-08-20T03:53:40.158Z,5.60
2022-08-20T03:58:42.034Z,6.03
2022-08-20T04:03:44.647Z,6.20
2022-08-20T04:08:46.354Z,6.88
2022-08-20T04:13:49.192Z,6.13
2022-08-20T04:19:01.372Z,6.22
2022-08-20T04:24:05.752Z,6.00
2022-08-20T04:29:07.431Z,5.30
2022-08-20T04:34:09.195Z,5.18
2022-08-20T04:39:10.795Z,5.78
2022-08-20T04:44:13.073Z,6.22
2022-08-20T04:49:15.215Z,6.32
2022-08-20T04:54:16.884Z,6.43
2022-08-20T04:59:18.494Z,6.38
2022-08-20T05:04:20.132Z,6.93
2022-08-20T05:09:21.756Z,5.80
2022-08-20T05:14:23.436Z,4.63
2022-08-20T05:19:25.425Z,3.60
2022-08-20T05:24:27.184Z,5.32
2022-08-20T05:29:28.829Z,5.50
2022-08-20T05:34:30.538Z,6.43
2022-08-20T05:39:35.496Z,5.65
2022-08-20T05:44:39.209Z,6.50
2022-08-20T05:49:42.832Z,6.80
2022-08-20T05:54:44.546Z,6.25
2022-08-20T05:59:47.332Z,5.88
2022-08-20T06:04:48.947Z,6.82
2022-08-20T06:09:58.012Z,5.43
2022-08-20T06:14:59.697Z,5.22
2022-08-20T06:20:05.578Z,5.20
2022-08-20T06:25:08.357Z,4.15
2022-08-20T06:30:13.680Z,5.03
2022-08-20T06:35:19.738Z,4.32
2022-08-20T06:45:29.265Z,3.20
2022-08-20T06:50:43.237Z,2.85
2022-08-20T06:55:52.954Z,2.75
2022-08-20T07:00:54.693Z,3.70
2022-08-20T07:05:56.373Z,4.35
2022-08-20T07:10:58.110Z,3.50
2022-08-20T07:15:59.755Z,3.40
2022-08-20T07:21:01.405Z,3.22
2022-08-20T07:26:03.478Z,4.03
2022-08-20T07:31:23.785Z,3.80
2022-08-20T07:36:25.613Z,3.58
2022-08-20T07:41:27.671Z,3.35
2022-08-20T07:46:31.683Z,3.92
2022-08-20T07:51:33.615Z,3.47
2022-08-20T07:56:35.232Z,3.30
2022-08-20T08:01:38.244Z,3.50
2022-08-20T08:06:40.525Z,3.55
2022-08-20T08:11:50.350Z,3.83
2022-08-20T08:16:55.090Z,3.65
2022-08-20T08:21:57.404Z,2.63
2022-08-20T08:27:00.447Z,2.58
2022-08-20T08:32:03.627Z,2.88
2022-08-20T08:37:05.898Z,2.05
2022-08-20T08:42:47.161Z,1.98
2022-08-20T08:47:48.993Z,1.98
2022-08-20T08:52:53.774Z,1.42
2022-08-20T08:58:04.270Z,1.58
2022-08-20T09:03:26.317Z,1.13
2022-08-20T09:08:44.106Z,0.73
2022-08-20T09:13:45.787Z,0.75
2022-08-20T09:18:47.412Z,0.57
2022-08-20T09:23:49.088Z,0.60
2022-08-20T09:28:52.236Z,0.88
2022-08-20T09:33:54.093Z,0.50
2022-08-20T09:38:56.167Z,0.80
2022-08-20T09:43:57.870Z,1.35
2022-08-20T09:48:59.471Z,0.80
2022-08-20T09:54:02.328Z,0.60
2022-08-20T09:59:04.851Z,0.40
2022-08-20T10:04:06.690Z,0.65
2022-08-20T10:09:08.486Z,0.20
2022-08-20T10:14:10.832Z,0.40
2022-08-20T10:19:12.463Z,0.30
2022-08-20T10:24:14.099Z,0.25
2022-08-20T10:29:16.463Z,0.30
2022-08-20T10:34:18.222Z,0.30
2022-08-20T10:39:19.853Z,0.25
2022-08-20T10:44:21.474Z,0.30
2022-08-20T10:49:23.153Z,0.30
2022-08-20T10:54:24.766Z,0.30
2022-08-20T10:59:26.430Z,0.40
2022-08-20T11:04:28.055Z,0.40
2022-08-20T11:09:29.718Z,0.40
2022-08-20T11:14:31.407Z,0.40
2022-08-20T11:19:33.186Z,0.40
2022-08-20T11:24:35.060Z,0.40
2022-08-20T11:29:38.076Z,0.30
2022-08-20T11:34:39.791Z,0.30
2022-08-20T11:39:41.999Z,0.40
2022-08-20T11:44:44.069Z,0.38
2022-08-20T11:49:45.772Z,0.40
2022-08-20T11:54:49.158Z,0.30
2022-08-20T11:59:55.755Z,0.30
2022-08-20T12:04:57.653Z,0.40
2022-08-20T12:09:59.293Z,0.20
2022-08-20T12:15:00.949Z,0.20
2022-08-20T12:20:10.080Z,0.20
2022-08-20T12:25:12.027Z,0.20
2022-08-20T12:30:17.410Z,0.20
2022-08-20T12:40:31.927Z,0.20
2022-08-20T12:45:35.254Z,0.30
2022-08-20T12:50:39.286Z,0.22
2022-08-20T12:55:41.028Z,0.15
2022-08-20T13:00:46.475Z,0.20
2022-08-20T13:05:52.181Z,0.20
2022-08-20T13:10:53.792Z,0.20
2022-08-20T13:15:55.430Z,0.13
2022-08-20T13:20:57.062Z,0.10
2022-08-20T13:25:58.714Z,0.10
2022-08-20T13:31:02.028Z,0.20
2022-08-20T13:36:04.086Z,0.10
2022-08-20T13:41:05.900Z,0.10
2022-08-20T13:46:07.634Z,0.10
2022-08-20T13:51:09.282Z,0.13
2022-08-20T13:56:11.008Z,0.30
2022-08-20T14:01:12.851Z,0.40
2022-08-20T14:06:14.520Z,0.40
2022-08-20T14:11:17.707Z,0.35
2022-08-20T14:16:25.266Z,0.47
2022-08-20T14:21:28.978Z,0.30
2022-08-20T14:26:30.660Z,0.30
2022-08-20T14:31:32.310Z,0.20
2022-08-20T14:36:33.950Z,0.25
2022-08-20T14:41:35.564Z,0.30
2022-08-20T14:46:37.192Z,0.30
2022-08-20T14:51:38.851Z,0.30
2022-08-20T14:56:40.463Z,0.20
2022-08-20T15:01:42.152Z,0.30
2022-08-20T15:06:43.768Z,0.35
2022-08-20T15:11:47.230Z,0.40
2022-08-20T15:16:49.006Z,0.40
2022-08-20T15:21:50.754Z,0.40
2022-08-20T15:26:52.426Z,0.38
2022-08-20T15:31:54.050Z,0.40
2022-08-20T15:36:57.199Z,0.40
2022-08-20T15:41:58.839Z,0.30
2022-08-20T15:47:18.463Z,0.40
2022-08-20T15:52:20.254Z,0.40
2022-08-20T15:57:40.647Z,0.30
2022-08-20T16:03:06.662Z,0.40
2022-08-20T16:08:40.524Z,0.40
2022-08-20T16:14:11.635Z,0.40
2022-08-20T16:19:27.060Z,0.40
2022-08-20T16:24:29.303Z,0.45
2022-08-20T16:30:01.625Z,0.40
2022-08-20T16:35:28.889Z,0.43
2022-08-20T16:40:39.833Z,0.60
2022-08-20T16:45:51.739Z,0.60
2022-08-20T16:51:08.626Z,0.43
2022-08-20T16:56:10.577Z,0.40
2022-08-20T17:01:14.329Z,0.38
2022-08-20T17:06:32.564Z,0.60
2022-08-20T17:11:37.117Z,0.55
2022-08-20T17:16:41.354Z,0.40
2022-08-20T17:21:43.552Z,0.50
2022-08-20T17:26:49.248Z,0.40
2022-08-20T17:31:53.696Z,0.60
2022-08-20T17:37:02.355Z,0.70
2022-08-20T17:42:26.241Z,0.47
2022-08-20T17:47:34.154Z,0.57
2022-08-20T17:52:56.827Z,0.50
2022-08-20T17:58:02.724Z,0.77
2022-08-20T18:08:35.516Z,0.93
2022-08-20T18:13:48.501Z,0.90
2022-08-20T18:19:05.698Z,1.08
2022-08-20T18:24:19.255Z,1.20
2022-08-20T18:29:27.333Z,1.33
2022-08-20T18:34:29.629Z,1.48
2022-08-20T18:39:40.972Z,1.65
2022-08-20T18:44:47.801Z,1.63
2022-08-20T18:50:16.089Z,1.67
2022-08-20T18:55:32.210Z,1.77
2022-08-20T19:00:44.418Z,1.65
2022-08-20T19:05:46.003Z,1.90
2022-08-20T19:10:55.404Z,1.77
2022-08-20T19:16:04.294Z,2.50
2022-08-20T19:21:08.965Z,1.90
2022-08-20T19:26:25.099Z,2.17
2022-08-20T19:31:33.087Z,1.98
2022-08-20T19:36:36.280Z,1.92
2022-08-20T19:42:00.857Z,2.40
2022-08-20T19:47:03.274Z,1.48
2022-08-20T19:52:21.683Z,1.95
2022-08-20T19:57:25.447Z,1.98
2022-08-20T20:02:30.911Z,2.03
2022-08-20T20:07:57.102Z,1.40
2022-08-20T20:13:06.116Z,1.63
2022-08-20T20:18:09.152Z,1.60
2022-08-20T20:23:23.258Z,1.48
2022-08-20T20:28:42.346Z,1.58
2022-08-20T20:33:44.487Z,1.48
2022-08-20T20:38:58.535Z,1.70
2022-08-20T20:44:18.514Z,1.45
2022-08-20T20:49:26.571Z,1.98
2022-08-20T20:54:44.265Z,1.13
2022-08-20T20:59:50.465Z,1.90
2022-08-20T21:04:52.382Z,1.73
2022-08-20T21:09:56.373Z,1.42
2022-08-20T21:14:58.163Z,1.30
2022-08-20T21:20:00.867Z,1.10
2022-08-20T21:25:04.628Z,1.05
2022-08-20T21:30:06.677Z,1.88
2022-08-20T21:35:09.781Z,1.02
2022-08-20T21:40:12.746Z,0.80
2022-08-20T21:45:18.770Z,1.30
2022-08-20T21:50:21.445Z,0.90
2022-08-20T21:55:23.176Z,1.08
2022-08-20T22:00:46.862Z,1.00
2022-08-20T22:05:49.064Z,1.10
2022-08-20T22:10:53.992Z,1.60
2022-08-20T22:15:55.672Z,1.23
2022-08-20T22:20:57.490Z,1.38
2022-08-20T22:25:59.270Z,1.20
2022-08-20T22:31:01.687Z,1.33
2022-08-20T22:36:05.648Z,1.77
2022-08-20T22:41:09.763Z,1.30
2022-08-20T22:46:14.903Z,1.33
2022-08-20T22:51:22.700Z,1.60
2022-08-20T22:56:24.391Z,1.80
2022-08-20T23:01:26.889Z,1.50
2022-08-20T23:06:29.716Z,1.75
2022-08-20T23:11:31.347Z,2.45
2022-08-20T23:16:33.515Z,1.70
2022-08-20T23:21:35.183Z,1.15
2022-08-20T23:26:36.864Z,1.83
2022-08-20T23:31:43.638Z,1.88
2022-08-20T23:36:45.320Z,1.85
2022-08-20T23:41:47.911Z,1.50
2022-08-20T23:46:49.972Z,1.38
2022-08-20T23:51:54.851Z,2.20
2022-08-20T23:56:57.143Z,1.83
